sensor_id;sensor_type;location;lat;lon;timestamp;temperature;humidity
52709;DHT22;38606;52.986;6.980;2023-07-13T00:01:29;17.40;99.90
52709;DHT22;38606;52.986;6.980;2023-07-13T00:03:57;17.30;99.90
52709;DHT22;38606;52.986;6.980;2023-07-13T00:06:23;17.20;99.90
52709;DHT22;38606;52.986;6.980;2023-07-13T00:08:49;17.30;99.90
52709;DHT22;38606;52.986;6.980;2023-07-13T00:11:15;17.30;99.90
52709;DHT22;38606;52.986;6.980;2023-07-13T00:13:42;17.30;99.90
52709;DHT22;38606;52.986;6.980;2023-07-13T00:16:10;17.20;99.90
52709;DHT22;38606;52.986;6.980;2023-07-13T00:18:37;17.20;99.90
52709;DHT22;38606;52.986;6.980;2023-07-13T00:21:03;17.00;99.90
52709;DHT22;38606;52.986;6.980;2023-07-13T00:23:37;17.30;99.90
52709;DHT22;38606;52.986;6.980;2023-07-13T00:26:06;17.40;99.90
52709;DHT22;38606;52.986;6.980;2023-07-13T00:28:32;17.20;99.90
52709;DHT22;38606;52.986;6.980;2023-07-13T00:30:58;17.20;99.90
52709;DHT22;38606;52.986;6.980;2023-07-13T00:33:24;17.50;99.90
52709;DHT22;38606;52.986;6.980;2023-07-13T00:35:50;17.10;99.90
52709;DHT22;38606;52.986;6.980;2023-07-13T00:38:16;17.00;99.90
52709;DHT22;38606;52.986;6.980;2023-07-13T00:40:42;17.10;99.90
52709;DHT22;38606;52.986;6.980;2023-07-13T00:43:21;17.00;99.90
52709;DHT22;38606;52.986;6.980;2023-07-13T00:48:19;16.90;99.90
52709;DHT22;38606;52.986;6.980;2023-07-13T00:50:48;17.20;99.90
52709;DHT22;38606;52.986;6.980;2023-07-13T00:53:15;17.10;99.90
52709;DHT22;38606;52.986;6.980;2023-07-13T00:55:41;17.00;99.90
52709;DHT22;38606;52.986;6.980;2023-07-13T00:58:06;17.10;99.90
52709;DHT22;38606;52.986;6.980;2023-07-13T01:00:35;17.10;99.90
52709;DHT22;38606;52.986;6.980;2023-07-13T01:03:03;17.00;99.90
52709;DHT22;38606;52.986;6.980;2023-07-13T01:05:31;17.10;99.90
52709;DHT22;38606;52.986;6.980;2023-07-13T01:07:58;17.00;99.90
52709;DHT22;38606;52.986;6.980;2023-07-13T01:10:25;17.00;99.90
52709;DHT22;38606;52.986;6.980;2023-07-13T01:12:51;17.00;99.90
52709;DHT22;38606;52.986;6.980;2023-07-13T01:15:37;17.10;99.90
52709;DHT22;38606;52.986;6.980;2023-07-13T01:18:08;16.80;99.90
52709;DHT22;38606;52.986;6.980;2023-07-13T01:20:35;17.00;99.90
52709;DHT22;38606;52.986;6.980;2023-07-13T01:23:07;17.00;99.90
52709;DHT22;38606;52.986;6.980;2023-07-13T01:25:34;17.20;99.90
52709;DHT22;38606;52.986;6.980;2023-07-13T01:28:02;17.10;99.90
52709;DHT22;38606;52.986;6.980;2023-07-13T01:30:27;17.10;99.90
52709;DHT22;38606;52.986;6.980;2023-07-13T01:32:53;17.10;99.90
52709;DHT22;38606;52.986;6.980;2023-07-13T01:35:19;17.10;99.90
52709;DHT22;38606;52.986;6.980;2023-07-13T01:37:44;17.20;99.90
52709;DHT22;38606;52.986;6.980;2023-07-13T01:40:12;16.90;99.90
52709;DHT22;38606;52.986;6.980;2023-07-13T01:42:38;17.10;99.90
52709;DHT22;38606;52.986;6.980;2023-07-13T01:45:04;17.00;99.90
52709;DHT22;38606;52.986;6.980;2023-07-13T01:47:30;17.10;99.90
52709;DHT22;38606;52.986;6.980;2023-07-13T01:49:57;17.20;99.90
52709;DHT22;38606;52.986;6.980;2023-07-13T01:52:23;16.90;99.90
52709;DHT22;38606;52.986;6.980;2023-07-13T01:54:48;17.10;99.90
52709;DHT22;38606;52.986;6.980;2023-07-13T01:57:14;17.10;99.90
52709;DHT22;38606;52.986;6.980;2023-07-13T01:59:40;17.20;99.90
52709;DHT22;38606;52.986;6.980;2023-07-13T02:02:06;17.20;99.90
52709;DHT22;38606;52.986;6.980;2023-07-13T02:04:31;16.90;99.90
52709;DHT22;38606;52.986;6.980;2023-07-13T02:06:57;17.20;99.90
52709;DHT22;38606;52.986;6.980;2023-07-13T02:09:23;17.10;99.90
52709;DHT22;38606;52.986;6.980;2023-07-13T02:11:49;17.40;99.90
52709;DHT22;38606;52.986;6.980;2023-07-13T02:14:14;16.80;99.90
52709;DHT22;38606;52.986;6.980;2023-07-13T02:16:41;17.10;99.90
52709;DHT22;38606;52.986;6.980;2023-07-13T02:19:07;17.10;99.90
52709;DHT22;38606;52.986;6.980;2023-07-13T02:21:33;17.20;99.90
52709;DHT22;38606;52.986;6.980;2023-07-13T02:23:59;17.00;99.90
52709;DHT22;38606;52.986;6.980;2023-07-13T02:26:26;17.10;99.90
52709;DHT22;38606;52.986;6.980;2023-07-13T02:28:52;17.00;99.90
52709;DHT22;38606;52.986;6.980;2023-07-13T02:31:18;17.20;99.90
52709;DHT22;38606;52.986;6.980;2023-07-13T02:33:44;17.00;99.90
52709;DHT22;38606;52.986;6.980;2023-07-13T02:36:10;17.10;99.90
52709;DHT22;38606;52.986;6.980;2023-07-13T02:38:36;17.10;99.90
52709;DHT22;38606;52.986;6.980;2023-07-13T02:41:06;17.30;99.90
52709;DHT22;38606;52.986;6.980;2023-07-13T02:43:32;17.30;99.90
52709;DHT22;38606;52.986;6.980;2023-07-13T02:45:59;17.30;99.90
52709;DHT22;38606;52.986;6.980;2023-07-13T02:48:30;16.20;99.90
52709;DHT22;38606;52.986;6.980;2023-07-13T02:50:55;17.10;99.90
52709;DHT22;38606;52.986;6.980;2023-07-13T02:53:21;17.30;99.90
52709;DHT22;38606;52.986;6.980;2023-07-13T02:55:47;17.00;99.90
52709;DHT22;38606;52.986;6.980;2023-07-13T02:58:13;17.10;99.90
52709;DHT22;38606;52.986;6.980;2023-07-13T03:00:42;17.10;99.90
52709;DHT22;38606;52.986;6.980;2023-07-13T03:03:08;16.90;99.90
52709;DHT22;38606;52.986;6.980;2023-07-13T03:05:34;16.80;99.90
52709;DHT22;38606;52.986;6.980;2023-07-13T03:08:00;16.90;99.90
52709;DHT22;38606;52.986;6.980;2023-07-13T03:10:26;16.90;99.90
52709;DHT22;38606;52.986;6.980;2023-07-13T03:12:51;17.10;99.90
52709;DHT22;38606;52.986;6.980;2023-07-13T03:15:17;16.80;99.90
52709;DHT22;38606;52.986;6.980;2023-07-13T03:17:43;16.90;99.90
52709;DHT22;38606;52.986;6.980;2023-07-13T03:20:09;17.10;99.90
52709;DHT22;38606;52.986;6.980;2023-07-13T03:22:34;17.10;99.90
52709;DHT22;38606;52.986;6.980;2023-07-13T03:25:00;16.90;99.90
52709;DHT22;38606;52.986;6.980;2023-07-13T03:27:26;16.80;99.90
52709;DHT22;38606;52.986;6.980;2023-07-13T03:29:52;17.00;99.90
52709;DHT22;38606;52.986;6.980;2023-07-13T03:32:17;16.70;99.90
52709;DHT22;38606;52.986;6.980;2023-07-13T03:34:43;16.90;99.90
52709;DHT22;38606;52.986;6.980;2023-07-13T03:37:09;17.00;99.90
52709;DHT22;38606;52.986;6.980;2023-07-13T03:39:34;17.10;99.90
52709;DHT22;38606;52.986;6.980;2023-07-13T03:42:00;16.90;99.90
52709;DHT22;38606;52.986;6.980;2023-07-13T03:44:26;17.00;99.90
52709;DHT22;38606;52.986;6.980;2023-07-13T03:46:51;16.80;99.90
52709;DHT22;38606;52.986;6.980;2023-07-13T03:49:17;17.10;99.90
52709;DHT22;38606;52.986;6.980;2023-07-13T03:51:43;17.30;99.90
52709;DHT22;38606;52.986;6.980;2023-07-13T03:54:08;17.20;99.90
52709;DHT22;38606;52.986;6.980;2023-07-13T03:56:34;16.90;99.90
52709;DHT22;38606;52.986;6.980;2023-07-13T03:59:00;17.10;99.90
52709;DHT22;38606;52.986;6.980;2023-07-13T04:01:26;16.80;99.90
52709;DHT22;38606;52.986;6.980;2023-07-13T04:03:52;17.20;99.90
52709;DHT22;38606;52.986;6.980;2023-07-13T04:06:21;17.10;99.90
52709;DHT22;38606;52.986;6.980;2023-07-13T04:08:52;17.10;99.90
52709;DHT22;38606;52.986;6.980;2023-07-13T04:11:19;17.10;99.90
52709;DHT22;38606;52.986;6.980;2023-07-13T04:13:46;17.00;99.90
52709;DHT22;38606;52.986;6.980;2023-07-13T04:16:13;16.90;99.90
52709;DHT22;38606;52.986;6.980;2023-07-13T04:18:39;18.90;99.90
52709;DHT22;38606;52.986;6.980;2023-07-13T04:21:06;16.90;99.90
52709;DHT22;38606;52.986;6.980;2023-07-13T04:23:31;17.00;99.90
52709;DHT22;38606;52.986;6.980;2023-07-13T04:25:57;17.00;99.90
52709;DHT22;38606;52.986;6.980;2023-07-13T04:28:25;16.90;99.90
52709;DHT22;38606;52.986;6.980;2023-07-13T04:30:51;17.00;99.90
52709;DHT22;38606;52.986;6.980;2023-07-13T04:33:17;17.20;99.90
52709;DHT22;38606;52.986;6.980;2023-07-13T04:35:44;17.10;99.90
52709;DHT22;38606;52.986;6.980;2023-07-13T04:38:12;16.90;99.90
52709;DHT22;38606;52.986;6.980;2023-07-13T04:40:38;17.00;99.90
52709;DHT22;38606;52.986;6.980;2023-07-13T04:43:03;17.20;99.90
52709;DHT22;38606;52.986;6.980;2023-07-13T04:45:29;17.20;99.90
52709;DHT22;38606;52.986;6.980;2023-07-13T04:47:57;17.10;99.90
52709;DHT22;38606;52.986;6.980;2023-07-13T04:50:22;17.20;99.90
52709;DHT22;38606;52.986;6.980;2023-07-13T04:52:51;17.20;99.90
52709;DHT22;38606;52.986;6.980;2023-07-13T04:55:18;17.20;99.90
52709;DHT22;38606;52.986;6.980;2023-07-13T04:57:44;17.10;99.90
52709;DHT22;38606;52.986;6.980;2023-07-13T05:00:10;17.00;99.90
52709;DHT22;38606;52.986;6.980;2023-07-13T05:02:38;17.00;99.90
52709;DHT22;38606;52.986;6.980;2023-07-13T05:05:04;17.30;99.90
52709;DHT22;38606;52.986;6.980;2023-07-13T05:07:30;17.30;99.90
52709;DHT22;38606;52.986;6.980;2023-07-13T05:10:01;17.00;99.90
52709;DHT22;38606;52.986;6.980;2023-07-13T05:12:27;17.00;99.90
52709;DHT22;38606;52.986;6.980;2023-07-13T05:14:53;17.10;99.90
52709;DHT22;38606;52.986;6.980;2023-07-13T05:17:18;16.90;99.90
52709;DHT22;38606;52.986;6.980;2023-07-13T05:19:44;17.00;99.90
52709;DHT22;38606;52.986;6.980;2023-07-13T05:22:10;17.50;99.90
52709;DHT22;38606;52.986;6.980;2023-07-13T05:24:35;17.30;99.90
52709;DHT22;38606;52.986;6.980;2023-07-13T05:27:01;17.20;99.90
52709;DHT22;38606;52.986;6.980;2023-07-13T05:29:27;17.60;99.90
52709;DHT22;38606;52.986;6.980;2023-07-13T05:31:53;17.70;99.90
52709;DHT22;38606;52.986;6.980;2023-07-13T05:34:18;17.50;99.90
52709;DHT22;38606;52.986;6.980;2023-07-13T05:36:44;17.70;99.90
52709;DHT22;38606;52.986;6.980;2023-07-13T05:39:10;17.50;99.90
52709;DHT22;38606;52.986;6.980;2023-07-13T05:41:37;17.80;99.90
52709;DHT22;38606;52.986;6.980;2023-07-13T05:44:02;18.00;99.90
52709;DHT22;38606;52.986;6.980;2023-07-13T05:46:28;18.10;99.90
52709;DHT22;38606;52.986;6.980;2023-07-13T05:48:54;17.80;99.90
52709;DHT22;38606;52.986;6.980;2023-07-13T05:51:20;18.20;99.90
52709;DHT22;38606;52.986;6.980;2023-07-13T05:53:45;18.30;99.90
52709;DHT22;38606;52.986;6.980;2023-07-13T05:56:11;18.30;99.90
52709;DHT22;38606;52.986;6.980;2023-07-13T05:58:38;18.60;99.90
52709;DHT22;38606;52.986;6.980;2023-07-13T06:01:10;18.60;99.90
52709;DHT22;38606;52.986;6.980;2023-07-13T06:03:36;18.50;99.90
52709;DHT22;38606;52.986;6.980;2023-07-13T06:06:04;18.50;99.90
52709;DHT22;38606;52.986;6.980;2023-07-13T06:08:31;18.80;99.90
52709;DHT22;38606;52.986;6.980;2023-07-13T06:11:26;18.80;99.90
52709;DHT22;38606;52.986;6.980;2023-07-13T06:13:53;18.80;99.90
52709;DHT22;38606;52.986;6.980;2023-07-13T06:16:19;18.70;99.90
52709;DHT22;38606;52.986;6.980;2023-07-13T06:18:45;19.10;99.90
52709;DHT22;38606;52.986;6.980;2023-07-13T06:21:17;19.00;99.90
52709;DHT22;38606;52.986;6.980;2023-07-13T06:23:44;19.30;99.90
52709;DHT22;38606;52.986;6.980;2023-07-13T06:26:10;19.30;99.90
52709;DHT22;38606;52.986;6.980;2023-07-13T06:28:37;19.50;99.90
52709;DHT22;38606;52.986;6.980;2023-07-13T06:31:06;19.30;99.90
52709;DHT22;38606;52.986;6.980;2023-07-13T06:33:32;19.50;99.90
52709;DHT22;38606;52.986;6.980;2023-07-13T06:35:58;19.90;99.90
52709;DHT22;38606;52.986;6.980;2023-07-13T06:38:24;19.30;99.90
52709;DHT22;38606;52.986;6.980;2023-07-13T06:40:49;19.80;99.90
52709;DHT22;38606;52.986;6.980;2023-07-13T06:43:15;19.80;99.90
52709;DHT22;38606;52.986;6.980;2023-07-13T06:45:46;19.70;99.90
52709;DHT22;38606;52.986;6.980;2023-07-13T06:48:18;19.40;99.90
52709;DHT22;38606;52.986;6.980;2023-07-13T06:50:45;20.10;99.90
52709;DHT22;38606;52.986;6.980;2023-07-13T06:53:12;20.10;99.90
52709;DHT22;38606;52.986;6.980;2023-07-13T06:55:38;20.30;99.90
52709;DHT22;38606;52.986;6.980;2023-07-13T06:58:04;20.30;99.90
52709;DHT22;38606;52.986;6.980;2023-07-13T07:00:29;20.50;99.90
52709;DHT22;38606;52.986;6.980;2023-07-13T07:02:55;20.40;99.90
52709;DHT22;38606;52.986;6.980;2023-07-13T07:05:21;20.50;99.90
52709;DHT22;38606;52.986;6.980;2023-07-13T07:07:49;21.00;99.90
52709;DHT22;38606;52.986;6.980;2023-07-13T07:10:14;21.00;99.90
52709;DHT22;38606;52.986;6.980;2023-07-13T07:12:40;20.90;99.90
52709;DHT22;38606;52.986;6.980;2023-07-13T07:15:06;21.00;99.90
52709;DHT22;38606;52.986;6.980;2023-07-13T07:17:32;21.10;99.90
52709;DHT22;38606;52.986;6.980;2023-07-13T07:19:57;21.10;99.90
52709;DHT22;38606;52.986;6.980;2023-07-13T07:22:23;21.60;99.90
52709;DHT22;38606;52.986;6.980;2023-07-13T07:24:52;21.40;99.90
52709;DHT22;38606;52.986;6.980;2023-07-13T07:27:18;21.50;99.90
52709;DHT22;38606;52.986;6.980;2023-07-13T07:29:44;21.40;99.90
52709;DHT22;38606;52.986;6.980;2023-07-13T07:32:09;21.60;99.90
52709;DHT22;38606;52.986;6.980;2023-07-13T07:34:35;21.60;99.90
52709;DHT22;38606;52.986;6.980;2023-07-13T07:37:02;21.90;99.90
52709;DHT22;38606;52.986;6.980;2023-07-13T07:39:28;22.00;99.90
52709;DHT22;38606;52.986;6.980;2023-07-13T07:41:54;22.00;99.90
52709;DHT22;38606;52.986;6.980;2023-07-13T07:44:20;22.00;99.90
52709;DHT22;38606;52.986;6.980;2023-07-13T07:46:46;22.10;99.90
52709;DHT22;38606;52.986;6.980;2023-07-13T07:49:12;21.80;99.90
52709;DHT22;38606;52.986;6.980;2023-07-13T07:51:37;21.90;99.90
52709;DHT22;38606;52.986;6.980;2023-07-13T07:54:04;21.70;99.90
52709;DHT22;38606;52.986;6.980;2023-07-13T07:56:30;21.60;99.90
52709;DHT22;38606;52.986;6.980;2023-07-13T07:58:56;21.60;99.90
52709;DHT22;38606;52.986;6.980;2023-07-13T08:01:22;21.60;99.90
52709;DHT22;38606;52.986;6.980;2023-07-13T08:03:48;21.70;99.90
52709;DHT22;38606;52.986;6.980;2023-07-13T08:06:14;21.50;99.90
52709;DHT22;38606;52.986;6.980;2023-07-13T08:08:40;21.70;99.90
52709;DHT22;38606;52.986;6.980;2023-07-13T08:11:07;21.50;99.90
52709;DHT22;38606;52.986;6.980;2023-07-13T08:13:34;21.50;99.90
52709;DHT22;38606;52.986;6.980;2023-07-13T08:16:00;21.50;99.90
52709;DHT22;38606;52.986;6.980;2023-07-13T08:18:26;21.80;99.90
52709;DHT22;38606;52.986;6.980;2023-07-13T08:20:54;21.50;99.90
52709;DHT22;38606;52.986;6.980;2023-07-13T08:23:22;21.50;99.90
52709;DHT22;38606;52.986;6.980;2023-07-13T08:25:54;21.40;99.90
52709;DHT22;38606;52.986;6.980;2023-07-13T08:28:21;21.30;99.90
52709;DHT22;38606;52.986;6.980;2023-07-13T08:30:47;21.30;99.90
52709;DHT22;38606;52.986;6.980;2023-07-13T08:33:21;21.10;99.90
52709;DHT22;38606;52.986;6.980;2023-07-13T08:35:50;21.30;99.90
52709;DHT22;38606;52.986;6.980;2023-07-13T08:38:16;21.20;99.90
52709;DHT22;38606;52.986;6.980;2023-07-13T08:40:43;21.40;99.90
52709;DHT22;38606;52.986;6.980;2023-07-13T08:43:16;21.30;99.90
52709;DHT22;38606;52.986;6.980;2023-07-13T08:45:51;21.30;99.90
52709;DHT22;38606;52.986;6.980;2023-07-13T08:48:26;21.80;99.90
52709;DHT22;38606;52.986;6.980;2023-07-13T08:51:02;21.50;99.90
52709;DHT22;38606;52.986;6.980;2023-07-13T08:53:37;21.40;99.90
52709;DHT22;38606;52.986;6.980;2023-07-13T08:56:07;21.60;99.90
52709;DHT22;38606;52.986;6.980;2023-07-13T08:58:36;21.70;99.90
52709;DHT22;38606;52.986;6.980;2023-07-13T09:01:41;21.80;99.90
52709;DHT22;38606;52.986;6.980;2023-07-13T09:04:20;21.80;99.90
52709;DHT22;38606;52.986;6.980;2023-07-13T09:06:59;22.10;99.90
52709;DHT22;38606;52.986;6.980;2023-07-13T09:09:55;22.00;99.90
52709;DHT22;38606;52.986;6.980;2023-07-13T09:12:35;21.90;99.90
52709;DHT22;38606;52.986;6.980;2023-07-13T09:17:52;21.80;99.90
52709;DHT22;38606;52.986;6.980;2023-07-13T09:20:37;21.40;99.90
52709;DHT22;38606;52.986;6.980;2023-07-13T09:23:13;21.60;99.90
52709;DHT22;38606;52.986;6.980;2023-07-13T09:25:41;21.40;99.90
52709;DHT22;38606;52.986;6.980;2023-07-13T09:28:24;21.50;99.90
52709;DHT22;38606;52.986;6.980;2023-07-13T09:33:29;21.60;99.90
52709;DHT22;38606;52.986;6.980;2023-07-13T09:35:59;21.40;99.90
52709;DHT22;38606;52.986;6.980;2023-07-13T09:38:29;21.50;99.90
52709;DHT22;38606;52.986;6.980;2023-07-13T09:41:09;21.30;99.90
52709;DHT22;38606;52.986;6.980;2023-07-13T09:44:01;21.50;99.90
52709;DHT22;38606;52.986;6.980;2023-07-13T09:46:27;21.20;99.90
52709;DHT22;38606;52.986;6.980;2023-07-13T09:48:52;21.10;99.90
52709;DHT22;38606;52.986;6.980;2023-07-13T09:51:18;21.20;99.90
52709;DHT22;38606;52.986;6.980;2023-07-13T09:53:44;21.10;99.90
52709;DHT22;38606;52.986;6.980;2023-07-13T09:58:46;20.90;99.90
52709;DHT22;38606;52.986;6.980;2023-07-13T10:01:12;20.60;99.90
52709;DHT22;38606;52.986;6.980;2023-07-13T10:03:37;20.50;99.90
52709;DHT22;38606;52.986;6.980;2023-07-13T10:08:37;20.50;99.90
52709;DHT22;38606;52.986;6.980;2023-07-13T10:11:11;20.70;99.90
52709;DHT22;38606;52.986;6.980;2023-07-13T10:13:52;20.50;99.90
52709;DHT22;38606;52.986;6.980;2023-07-13T10:16:21;20.70;99.90
52709;DHT22;38606;52.986;6.980;2023-07-13T10:19:27;20.80;99.90
52709;DHT22;38606;52.986;6.980;2023-07-13T10:22:02;20.80;99.90
52709;DHT22;38606;52.986;6.980;2023-07-13T10:24:33;20.70;99.90
52709;DHT22;38606;52.986;6.980;2023-07-13T10:27:13;21.10;99.90
52709;DHT22;38606;52.986;6.980;2023-07-13T10:29:50;21.10;99.90
52709;DHT22;38606;52.986;6.980;2023-07-13T10:32:19;20.90;99.90
52709;DHT22;38606;52.986;6.980;2023-07-13T10:34:48;21.10;99.90
52709;DHT22;38606;52.986;6.980;2023-07-13T10:37:22;20.70;99.90
52709;DHT22;38606;52.986;6.980;2023-07-13T10:39:49;21.40;99.90
52709;DHT22;38606;52.986;6.980;2023-07-13T10:42:35;21.60;99.90
52709;DHT22;38606;52.986;6.980;2023-07-13T10:45:11;21.80;99.90
52709;DHT22;38606;52.986;6.980;2023-07-13T10:47:38;21.80;99.90
52709;DHT22;38606;52.986;6.980;2023-07-13T10:50:06;22.00;99.90
52709;DHT22;38606;52.986;6.980;2023-07-13T10:52:46;22.10;99.90
52709;DHT22;38606;52.986;6.980;2023-07-13T10:55:38;22.00;99.90
52709;DHT22;38606;52.986;6.980;2023-07-13T10:58:19;22.30;99.90
52709;DHT22;38606;52.986;6.980;2023-07-13T11:01:17;22.60;99.90
52709;DHT22;38606;52.986;6.980;2023-07-13T11:03:50;22.60;99.90
52709;DHT22;38606;52.986;6.980;2023-07-13T11:06:27;22.80;99.90
52709;DHT22;38606;52.986;6.980;2023-07-13T11:09:03;23.00;99.90
52709;DHT22;38606;52.986;6.980;2023-07-13T11:11:42;22.60;99.90
52709;DHT22;38606;52.986;6.980;2023-07-13T11:14:34;23.10;99.90
52709;DHT22;38606;52.986;6.980;2023-07-13T11:19:54;23.00;99.90
52709;DHT22;38606;52.986;6.980;2023-07-13T11:22:25;22.80;99.90
52709;DHT22;38606;52.986;6.980;2023-07-13T11:28:04;22.50;99.90
52709;DHT22;38606;52.986;6.980;2023-07-13T11:34:08;22.20;99.90
52709;DHT22;38606;52.986;6.980;2023-07-13T11:36:17;21.90;99.90
52709;DHT22;38606;52.986;6.980;2023-07-13T11:39:00;21.90;99.90
52709;DHT22;38606;52.986;6.980;2023-07-13T11:41:44;21.70;99.90
52709;DHT22;38606;52.986;6.980;2023-07-13T11:44:17;21.70;99.90
52709;DHT22;38606;52.986;6.980;2023-07-13T11:46:49;21.20;99.90
52709;DHT22;38606;52.986;6.980;2023-07-13T11:49:18;21.00;99.90
52709;DHT22;38606;52.986;6.980;2023-07-13T11:51:44;20.80;99.90
52709;DHT22;38606;52.986;6.980;2023-07-13T11:57:03;21.00;99.90
52709;DHT22;38606;52.986;6.980;2023-07-13T11:59:32;23.10;99.90
52709;DHT22;38606;52.986;6.980;2023-07-13T12:01:59;20.70;99.90
52709;DHT22;38606;52.986;6.980;2023-07-13T12:04:30;20.60;99.90
52709;DHT22;38606;52.986;6.980;2023-07-13T12:07:15;20.50;99.90
52709;DHT22;38606;52.986;6.980;2023-07-13T12:09:42;20.50;99.90
52709;DHT22;38606;52.986;6.980;2023-07-13T12:12:18;20.30;99.90
52709;DHT22;38606;52.986;6.980;2023-07-13T12:14:44;20.30;99.90
52709;DHT22;38606;52.986;6.980;2023-07-13T12:17:19;20.70;99.90
52709;DHT22;38606;52.986;6.980;2023-07-13T12:19:45;20.70;99.90
52709;DHT22;38606;52.986;6.980;2023-07-13T12:22:13;20.80;99.90
52709;DHT22;38606;52.986;6.980;2023-07-13T12:24:40;20.80;99.90
52709;DHT22;38606;52.986;6.980;2023-07-13T12:27:24;21.10;99.90
52709;DHT22;38606;52.986;6.980;2023-07-13T12:32:19;21.20;99.90
52709;DHT22;38606;52.986;6.980;2023-07-13T12:35:16;21.40;99.90
52709;DHT22;38606;52.986;6.980;2023-07-13T12:37:43;21.70;99.90
52709;DHT22;38606;52.986;6.980;2023-07-13T12:40:16;21.70;99.90
52709;DHT22;38606;52.986;6.980;2023-07-13T12:42:49;22.20;99.90
52709;DHT22;38606;52.986;6.980;2023-07-13T12:45:26;21.80;99.90
52709;DHT22;38606;52.986;6.980;2023-07-13T12:48:15;22.10;99.90
52709;DHT22;38606;52.986;6.980;2023-07-13T12:50:46;22.60;99.90
52709;DHT22;38606;52.986;6.980;2023-07-13T12:53:20;22.90;99.90
52709;DHT22;38606;52.986;6.980;2023-07-13T12:58:25;23.10;99.90
52709;DHT22;38606;52.986;6.980;2023-07-13T13:00:54;23.30;99.90
52709;DHT22;38606;52.986;6.980;2023-07-13T13:03:31;23.30;99.90
52709;DHT22;38606;52.986;6.980;2023-07-13T13:06:00;23.30;99.90
52709;DHT22;38606;52.986;6.980;2023-07-13T13:08:29;23.60;99.90
52709;DHT22;38606;52.986;6.980;2023-07-13T13:10:54;23.40;99.90
52709;DHT22;38606;52.986;6.980;2023-07-13T13:13:20;23.70;99.90
52709;DHT22;38606;52.986;6.980;2023-07-13T13:15:46;23.80;99.90
52709;DHT22;38606;52.986;6.980;2023-07-13T13:18:31;23.90;99.90
52709;DHT22;38606;52.986;6.980;2023-07-13T13:20:56;23.80;99.90
52709;DHT22;38606;52.986;6.980;2023-07-13T13:23:22;24.00;99.90
52709;DHT22;38606;52.986;6.980;2023-07-13T13:25:50;24.20;99.90
52709;DHT22;38606;52.986;6.980;2023-07-13T13:28:20;24.00;99.90
52709;DHT22;38606;52.986;6.980;2023-07-13T13:30:48;24.00;99.90
52709;DHT22;38606;52.986;6.980;2023-07-13T13:33:16;23.70;99.90
52709;DHT22;38606;52.986;6.980;2023-07-13T13:35:43;24.10;99.90
52709;DHT22;38606;52.986;6.980;2023-07-13T13:38:16;23.90;99.90
52709;DHT22;38606;52.986;6.980;2023-07-13T13:40:44;24.20;99.90
52709;DHT22;38606;52.986;6.980;2023-07-13T13:43:17;24.30;99.90
52709;DHT22;38606;52.986;6.980;2023-07-13T13:45:44;24.20;99.90
52709;DHT22;38606;52.986;6.980;2023-07-13T13:48:35;24.70;99.90
52709;DHT22;38606;52.986;6.980;2023-07-13T13:51:11;24.60;99.50
52709;DHT22;38606;52.986;6.980;2023-07-13T13:53:38;24.70;99.00
52709;DHT22;38606;52.986;6.980;2023-07-13T13:56:04;24.60;98.90
52709;DHT22;38606;52.986;6.980;2023-07-13T13:58:30;24.20;98.40
52709;DHT22;38606;52.986;6.980;2023-07-13T14:00:56;24.50;97.80
52709;DHT22;38606;52.986;6.980;2023-07-13T14:03:23;24.40;97.10
52709;DHT22;38606;52.986;6.980;2023-07-13T14:05:49;24.00;97.10
52709;DHT22;38606;52.986;6.980;2023-07-13T14:08:17;24.30;97.50
52709;DHT22;38606;52.986;6.980;2023-07-13T14:10:49;24.50;98.20
52709;DHT22;38606;52.986;6.980;2023-07-13T14:13:38;24.50;98.20
52709;DHT22;38606;52.986;6.980;2023-07-13T14:16:31;24.60;97.50
52709;DHT22;38606;52.986;6.980;2023-07-13T14:18:59;24.30;96.50
52709;DHT22;38606;52.986;6.980;2023-07-13T14:21:27;24.40;97.30
52709;DHT22;38606;52.986;6.980;2023-07-13T14:23:54;24.10;97.10
52709;DHT22;38606;52.986;6.980;2023-07-13T14:26:23;23.60;96.90
52709;DHT22;38606;52.986;6.980;2023-07-13T14:28:52;23.90;97.40
52709;DHT22;38606;52.986;6.980;2023-07-13T14:31:21;23.80;98.00
52709;DHT22;38606;52.986;6.980;2023-07-13T14:33:47;23.60;97.40
52709;DHT22;38606;52.986;6.980;2023-07-13T14:36:32;23.50;97.20
52709;DHT22;38606;52.986;6.980;2023-07-13T14:38:59;24.00;97.50
52709;DHT22;38606;52.986;6.980;2023-07-13T14:41:26;23.90;97.20
52709;DHT22;38606;52.986;6.980;2023-07-13T14:43:52;23.60;97.60
52709;DHT22;38606;52.986;6.980;2023-07-13T14:46:27;23.70;97.70
52709;DHT22;38606;52.986;6.980;2023-07-13T14:51:48;23.60;97.40
52709;DHT22;38606;52.986;6.980;2023-07-13T14:54:14;23.80;97.60
52709;DHT22;38606;52.986;6.980;2023-07-13T14:56:40;23.70;97.30
52709;DHT22;38606;52.986;6.980;2023-07-13T14:59:06;23.30;97.10
52709;DHT22;38606;52.986;6.980;2023-07-13T15:01:36;23.50;97.20
52709;DHT22;38606;52.986;6.980;2023-07-13T15:04:03;23.50;97.30
52709;DHT22;38606;52.986;6.980;2023-07-13T15:06:29;23.50;97.40
52709;DHT22;38606;52.986;6.980;2023-07-13T15:08:57;23.50;97.40
52709;DHT22;38606;52.986;6.980;2023-07-13T15:11:23;23.30;97.40
52709;DHT22;38606;52.986;6.980;2023-07-13T15:13:49;23.30;97.40
52709;DHT22;38606;52.986;6.980;2023-07-13T15:16:22;23.70;97.90
52709;DHT22;38606;52.986;6.980;2023-07-13T15:18:49;23.50;98.40
52709;DHT22;38606;52.986;6.980;2023-07-13T15:21:21;23.50;98.30
52709;DHT22;38606;52.986;6.980;2023-07-13T15:23:47;23.40;98.40
52709;DHT22;38606;52.986;6.980;2023-07-13T15:26:14;23.20;98.10
52709;DHT22;38606;52.986;6.980;2023-07-13T15:28:42;23.20;98.00
52709;DHT22;38606;52.986;6.980;2023-07-13T15:31:24;23.00;98.40
52709;DHT22;38606;52.986;6.980;2023-07-13T15:33:51;23.30;97.50
52709;DHT22;38606;52.986;6.980;2023-07-13T15:36:21;23.30;98.20
52709;DHT22;38606;52.986;6.980;2023-07-13T15:38:48;22.90;97.80
52709;DHT22;38606;52.986;6.980;2023-07-13T15:41:18;23.00;97.60
52709;DHT22;38606;52.986;6.980;2023-07-13T15:43:44;23.10;97.40
52709;DHT22;38606;52.986;6.980;2023-07-13T15:46:10;23.00;97.70
52709;DHT22;38606;52.986;6.980;2023-07-13T15:48:36;23.30;97.40
52709;DHT22;38606;52.986;6.980;2023-07-13T15:51:04;23.20;97.90
52709;DHT22;38606;52.986;6.980;2023-07-13T15:53:32;23.30;98.20
52709;DHT22;38606;52.986;6.980;2023-07-13T15:55:59;23.20;97.40
52709;DHT22;38606;52.986;6.980;2023-07-13T15:58:25;23.20;97.10
52709;DHT22;38606;52.986;6.980;2023-07-13T16:00:51;23.00;96.60
52709;DHT22;38606;52.986;6.980;2023-07-13T16:03:20;23.30;97.20
52709;DHT22;38606;52.986;6.980;2023-07-13T16:05:46;23.10;97.00
52709;DHT22;38606;52.986;6.980;2023-07-13T16:08:27;23.40;96.80
52709;DHT22;38606;52.986;6.980;2023-07-13T16:10:55;23.00;96.20
52709;DHT22;38606;52.986;6.980;2023-07-13T16:13:21;22.90;96.60
52709;DHT22;38606;52.986;6.980;2023-07-13T16:15:47;22.90;96.60